Time;durP1;ratioP1;P1;durP2;ratioP2;P2;SDS_P1;SDS_P2;PMS_P1;PMS_P2;Temp;Humidity;BMP_temperature;BMP_pressure;BME280_temperature;BME280_humidity;BME280_pressure;Samples;Min_cycle;Max_cycle;Signal;HPM_P1;HPM_P2
2022/03/21 00:00:47;;;;;;;9.52;5.30;;;;;;;;;;2079477;28;20026;-59
2022/03/21 00:02:07;;;;;;;11.05;5.85;;;;;;;;;;2080399;28;20033;-60
2022/03/21 00:03:28;;;;;;;7.90;4.97;;;;;;;;;;2080825;28;20427;-62
2022/03/21 00:04:48;;;;;;;6.65;6.00;;;;;;;;;;2080770;28;20033;-60
2022/03/21 00:06:07;;;;;;;9.15;4.72;;;;;;;;;;2079534;28;20030;-59
2022/03/21 00:07:26;;;;;;;6.65;5.35;;;;;;;;;;2080946;28;20740;-60
2022/03/21 00:08:45;;;;;;;8.73;5.30;;;;;;;;;;2080197;28;20037;-60
2022/03/21 00:10:04;;;;;;;7.32;5.93;;;;;;;;;;2080689;28;20029;-60
2022/03/21 00:11:24;;;;;;;17.27;6.15;;;;;;;;;;2078844;28;20432;-60
2022/03/21 00:12:43;;;;;;;9.38;6.30;;;;;;;;;;2078203;28;20468;-58
2022/03/21 00:14:02;;;;;;;7.72;6.22;;;;;;;;;;2081267;28;20022;-60
2022/03/21 00:15:22;;;;;;;10.10;6.10;;;;;;;;;;2080362;28;20555;-60
2022/03/21 00:16:41;;;;;;;9.00;6.00;;;;;;;;;;2079534;28;20034;-60
2022/03/21 00:18:02;;;;;;;6.38;5.68;;;;;;;;;;2080870;28;20037;-59
2022/03/21 00:19:21;;;;;;;9.07;5.90;;;;;;;;;;2080957;28;20033;-58
2022/03/21 00:20:41;;;;;;;8.25;6.45;;;;;;;;;;2079864;28;20480;-60
2022/03/21 00:22:01;;;;;;;13.95;6.40;;;;;;;;;;2078897;28;20037;-59
2022/03/21 00:23:20;;;;;;;9.35;6.15;;;;;;;;;;2079797;28;20065;-59
2022/03/21 00:24:40;;;;;;;9.43;6.07;;;;;;;;;;2081237;28;20033;-60
2022/03/21 00:25:59;;;;;;;10.75;6.63;;;;;;;;;;2079429;28;20488;-59
2022/03/21 00:27:18;;;;;;;9.63;6.15;;;;;;;;;;2079769;28;20033;-60
2022/03/21 00:28:37;;;;;;;8.00;5.78;;;;;;;;;;2080562;28;20029;-58
2022/03/21 00:29:56;;;;;;;11.80;6.03;;;;;;;;;;2080902;28;20041;-59
2022/03/21 00:31:16;;;;;;;14.70;6.22;;;;;;;;;;2079707;28;20037;-60
2022/03/21 00:32:37;;;;;;;8.85;6.45;;;;;;;;;;2078683;28;20045;-60
2022/03/21 00:33:56;;;;;;;12.02;5.85;;;;;;;;;;2079186;28;20062;-59
2022/03/21 00:35:15;;;;;;;9.77;6.05;;;;;;;;;;2079894;28;20029;-61
2022/03/21 00:36:34;;;;;;;9.15;6.05;;;;;;;;;;2079136;28;20109;-59
2022/03/21 00:37:54;;;;;;;9.23;6.22;;;;;;;;;;2081488;28;20018;-60
2022/03/21 00:39:13;;;;;;;10.35;6.22;;;;;;;;;;2079002;28;20403;-59
2022/03/21 00:40:32;;;;;;;8.02;6.18;;;;;;;;;;2078577;28;20041;-59
2022/03/21 00:44:12;;;;;;;11.13;6.70;;;;;;;;;;2078520;28;20117;-59
2022/03/21 00:45:32;;;;;;;13.55;6.88;;;;;;;;;;2078483;28;20139;-59
2022/03/21 00:46:51;;;;;;;11.65;6.78;;;;;;;;;;2077664;28;20034;-59
2022/03/21 00:48:10;;;;;;;10.98;7.47;;;;;;;;;;2078575;28;20112;-59
2022/03/21 00:49:28;;;;;;;12.95;6.60;;;;;;;;;;2079963;28;20148;-59
2022/03/21 00:50:47;;;;;;;13.02;7.13;;;;;;;;;;2079964;28;20116;-59
2022/03/21 00:52:07;;;;;;;12.13;7.70;;;;;;;;;;2077294;28;20038;-58
2022/03/21 00:53:25;;;;;;;8.48;6.70;;;;;;;;;;2080567;28;20021;-59
2022/03/21 00:54:44;;;;;;;11.98;7.50;;;;;;;;;;2077354;28;20017;-58
2022/03/21 00:56:03;;;;;;;13.05;7.28;;;;;;;;;;2080323;28;20108;-59
2022/03/21 00:57:22;;;;;;;14.45;7.40;;;;;;;;;;2078659;28;20112;-58
2022/03/21 00:58:41;;;;;;;13.90;8.27;;;;;;;;;;2079319;28;20404;-59
2022/03/21 01:00:00;;;;;;;8.27;7.45;;;;;;;;;;2079355;28;20022;-59
2022/03/21 01:01:19;;;;;;;15.30;8.52;;;;;;;;;;2078600;28;20112;-59
2022/03/21 01:02:38;;;;;;;13.32;8.60;;;;;;;;;;2076935;28;20046;-59
2022/03/21 01:03:57;;;;;;;16.15;8.00;;;;;;;;;;2077999;28;20041;-59
2022/03/21 01:05:16;;;;;;;12.55;7.28;;;;;;;;;;2077800;28;20499;-60
2022/03/21 01:06:36;;;;;;;15.43;8.38;;;;;;;;;;2080022;28;20025;-60
2022/03/21 01:07:55;;;;;;;10.38;7.20;;;;;;;;;;2078714;28;20077;-61
2022/03/21 01:09:17;;;;;;;10.60;7.55;;;;;;;;;;2079289;28;20029;-58
2022/03/21 01:10:35;;;;;;;11.95;7.38;;;;;;;;;;2080272;28;20042;-58
2022/03/21 01:11:55;;;;;;;10.32;7.78;;;;;;;;;;2079690;28;20029;-59
2022/03/21 01:13:18;;;;;;;16.17;7.85;;;;;;;;;;2077036;28;20029;-60
2022/03/21 01:14:36;;;;;;;18.50;8.63;;;;;;;;;;2076167;28;20025;-59
2022/03/21 01:15:55;;;;;;;13.43;7.95;;;;;;;;;;2079664;28;20021;-59
2022/03/21 01:17:14;;;;;;;15.88;8.52;;;;;;;;;;2079350;28;20396;-59
2022/03/21 01:18:33;;;;;;;10.77;7.72;;;;;;;;;;2079619;28;20029;-59
2022/03/21 01:19:53;;;;;;;10.82;8.13;;;;;;;;;;2080722;28;20400;-59
2022/03/21 01:21:12;;;;;;;12.65;8.35;;;;;;;;;;2079854;28;20029;-59
2022/03/21 01:22:31;;;;;;;11.70;8.80;;;;;;;;;;2076815;28;20025;-59
2022/03/21 01:23:50;;;;;;;13.90;8.73;;;;;;;;;;2079092;28;20045;-59
2022/03/21 01:25:09;;;;;;;15.45;8.80;;;;;;;;;;2081069;28;20025;-59
2022/03/21 01:26:28;;;;;;;14.90;8.80;;;;;;;;;;2079919;28;20026;-59
2022/03/21 01:27:47;;;;;;;14.73;9.45;;;;;;;;;;2079955;28;20037;-60
2022/03/21 01:29:06;;;;;;;13.75;9.75;;;;;;;;;;2079337;28;20029;-59
2022/03/21 01:30:25;;;;;;;16.00;9.02;;;;;;;;;;2078568;28;20033;-59
2022/03/21 01:31:43;;;;;;;14.07;9.38;;;;;;;;;;2076844;28;20022;-59
2022/03/21 01:33:03;;;;;;;14.70;9.57;;;;;;;;;;2075213;28;20045;-59
2022/03/21 01:34:22;;;;;;;19.50;9.35;;;;;;;;;;2078380;28;20056;-59
2022/03/21 01:35:41;;;;;;;19.45;10.07;;;;;;;;;;2077633;28;20088;-59
2022/03/21 01:36:59;;;;;;;15.85;9.93;;;;;;;;;;2079764;28;20041;-60
2022/03/21 01:38:18;;;;;;;15.32;9.55;;;;;;;;;;2078098;28;20100;-59
2022/03/21 01:39:37;;;;;;;14.43;9.93;;;;;;;;;;2081383;28;20457;-59
2022/03/21 01:40:56;;;;;;;15.20;9.52;;;;;;;;;;2079764;28;20033;-60
2022/03/21 01:42:18;;;;;;;16.70;9.85;;;;;;;;;;2076958;28;20025;-59
2022/03/21 01:44:13;;;;;;;17.80;9.80;;;;;;;;;;2080191;28;20078;-59
2022/03/21 01:45:32;;;;;;;15.45;10.65;;;;;;;;;;2077809;28;20523;-59
2022/03/21 01:46:51;;;;;;;20.08;11.00;;;;;;;;;;2078453;28;20037;-59
2022/03/21 01:48:10;;;;;;;16.67;10.32;;;;;;;;;;2078107;28;20042;-58
2022/03/21 01:49:29;;;;;;;16.92;10.30;;;;;;;;;;2078404;28;20108;-59
2022/03/21 01:50:48;;;;;;;16.58;10.52;;;;;;;;;;2079242;28;20037;-59
2022/03/21 01:52:07;;;;;;;19.60;10.75;;;;;;;;;;2077499;28;20038;-58
2022/03/21 01:56:45;;;;;;;17.90;11.35;;;;;;;;;;2078575;28;20388;-59
2022/03/21 01:58:04;;;;;;;16.90;10.57;;;;;;;;;;2077574;28;20022;-59
2022/03/21 01:59:24;;;;;;;16.35;10.75;;;;;;;;;;2078347;28;20025;-59
2022/03/21 02:00:43;;;;;;;15.65;10.95;;;;;;;;;;2079804;28;20033;-60
2022/03/21 02:02:03;;;;;;;15.40;11.63;;;;;;;;;;2078314;28;20443;-60
2022/03/21 02:03:22;;;;;;;16.90;11.35;;;;;;;;;;2078938;28;20435;-59
2022/03/21 02:04:42;;;;;;;16.60;10.88;;;;;;;;;;2079397;28;20038;-59
2022/03/21 02:06:01;;;;;;;17.55;11.48;;;;;;;;;;2079361;28;20030;-59
2022/03/21 02:07:20;;;;;;;17.42;11.88;;;;;;;;;;2079331;28;20034;-59
2022/03/21 02:08:39;;;;;;;24.73;12.18;;;;;;;;;;2075954;28;20042;-59
2022/03/21 02:09:57;;;;;;;15.75;11.57;;;;;;;;;;2078533;28;20392;-59
2022/03/21 02:11:19;;;;;;;19.05;11.55;;;;;;;;;;2078904;28;20404;-59
2022/03/21 02:12:38;;;;;;;15.90;11.00;;;;;;;;;;2077541;28;20102;-59
2022/03/21 02:13:57;;;;;;;19.33;11.90;;;;;;;;;;2078901;28;20029;-60
2022/03/21 02:15:17;;;;;;;17.98;11.57;;;;;;;;;;2079120;28;20506;-59
2022/03/21 02:16:36;;;;;;;21.40;12.15;;;;;;;;;;2079724;28;20034;-60
2022/03/21 02:17:59;;;;;;;18.45;12.05;;;;;;;;;;2079936;28;20084;-60
2022/03/21 02:19:21;;;;;;;18.65;12.98;;;;;;;;;;2079107;28;20030;-59
2022/03/21 02:20:41;;;;;;;23.15;12.23;;;;;;;;;;2079893;28;20034;-59
2022/03/21 02:22:06;;;;;;;19.73;12.30;;;;;;;;;;2077356;28;20507;-60
2022/03/21 02:23:30;;;;;;;22.80;12.50;;;;;;;;;;2074983;28;20060;-59
2022/03/21 02:25:08;;;;;;;21.50;12.25;;;;;;;;;;2074744;28;20497;-60
2022/03/21 02:26:28;;;;;;;19.48;11.73;;;;;;;;;;2077698;28;20037;-60
2022/03/21 02:27:47;;;;;;;17.70;12.25;;;;;;;;;;2080499;28;20041;-59
2022/03/21 02:29:07;;;;;;;20.20;13.20;;;;;;;;;;2076848;28;20029;-59
2022/03/21 02:30:27;;;;;;;17.55;12.80;;;;;;;;;;2079439;28;20427;-60
2022/03/21 02:31:46;;;;;;;19.85;12.95;;;;;;;;;;2078359;28;20037;-58
2022/03/21 02:33:06;;;;;;;22.98;12.68;;;;;;;;;;2079203;28;20557;-58
2022/03/21 02:34:25;;;;;;;23.10;14.15;;;;;;;;;;2078479;28;20487;-59
2022/03/21 02:35:48;;;;;;;21.45;13.07;;;;;;;;;;2078334;28;20386;-60
2022/03/21 02:37:07;;;;;;;;;;;;;;;;;;2078383;28;20104;-60
2022/03/21 02:38:27;;;;;;;20.95;13.15;;;;;;;;;;2078827;28;19917;-59
2022/03/21 02:39:46;;;;;;;19.40;13.93;;;;;;;;;;2079073;28;20025;-59
2022/03/21 02:41:05;;;;;;;21.77;13.98;;;;;;;;;;2079822;28;20053;-60
2022/03/21 02:42:24;;;;;;;20.60;14.00;;;;;;;;;;2079296;28;20029;-58
2022/03/21 02:43:52;;;;;;;22.17;14.63;;;;;;;;;;2076252;28;20483;-60
2022/03/21 02:45:11;;;;;;;20.95;15.15;;;;;;;;;;2078818;28;20408;-59
2022/03/21 02:46:30;;;;;;;23.70;14.85;;;;;;;;;;2078771;28;20029;-59
2022/03/21 02:47:49;;;;;;;18.90;14.02;;;;;;;;;;2079461;28;20045;-58
2022/03/21 02:49:08;;;;;;;22.23;14.77;;;;;;;;;;2078248;28;20033;-59
2022/03/21 02:50:43;;;;;;;23.98;15.00;;;;;;;;;;2078643;28;20492;-59
2022/03/21 02:52:04;;;;;;;24.30;14.52;;;;;;;;;;2078197;28;20502;-60
2022/03/21 02:53:23;;;;;;;25.13;16.48;;;;;;;;;;2077813;28;20488;-59
2022/03/21 02:54:42;;;;;;;21.67;15.13;;;;;;;;;;2078375;28;20041;-60
2022/03/21 02:56:01;;;;;;;26.80;16.77;;;;;;;;;;2079306;28;20038;-60
2022/03/21 02:57:20;;;;;;;23.52;15.55;;;;;;;;;;2079409;28;20026;-60
2022/03/21 02:58:39;;;;;;;22.52;14.98;;;;;;;;;;2078380;28;20116;-60
2022/03/21 02:59:57;;;;;;;26.25;16.38;;;;;;;;;;2080021;28;20034;-60
2022/03/21 03:01:17;;;;;;;26.55;16.92;;;;;;;;;;2077103;28;20021;-59
2022/03/21 03:02:36;;;;;;;25.25;16.80;;;;;;;;;;2078002;28;20303;-59
2022/03/21 03:03:55;;;;;;;27.25;16.42;;;;;;;;;;2077530;28;20388;-58
2022/03/21 03:05:14;;;;;;;28.30;16.90;;;;;;;;;;2078842;28;20037;-59
2022/03/21 03:06:34;;;;;;;28.65;17.85;;;;;;;;;;2078259;28;20041;-59
2022/03/21 03:07:53;;;;;;;26.88;17.50;;;;;;;;;;2078781;28;20029;-60
2022/03/21 03:09:12;;;;;;;27.98;17.20;;;;;;;;;;2078679;28;20033;-59
2022/03/21 03:10:31;;;;;;;28.05;17.50;;;;;;;;;;2079230;28;20491;-60
2022/03/21 03:11:50;;;;;;;30.70;17.65;;;;;;;;;;2077926;28;20041;-58
2022/03/21 03:13:09;;;;;;;23.83;17.70;;;;;;;;;;2078711;28;20030;-59
2022/03/21 03:14:28;;;;;;;25.88;17.33;;;;;;;;;;2078724;28;20030;-60
2022/03/21 03:15:49;;;;;;;29.65;17.88;;;;;;;;;;2079972;28;20124;-59
2022/03/21 03:17:08;;;;;;;29.58;17.90;;;;;;;;;;2078850;28;20104;-59
2022/03/21 03:18:28;;;;;;;30.52;19.20;;;;;;;;;;2079220;28;20041;-59
2022/03/21 03:19:47;;;;;;;30.05;18.88;;;;;;;;;;2077900;28;20069;-58
2022/03/21 03:21:06;;;;;;;27.77;18.25;;;;;;;;;;2079675;28;20026;-60
2022/03/21 03:22:25;;;;;;;28.83;18.10;;;;;;;;;;2077838;28;20568;-60
2022/03/21 03:23:44;;;;;;;27.65;18.48;;;;;;;;;;2078929;28;20073;-59
2022/03/21 03:25:03;;;;;;;26.95;18.98;;;;;;;;;;2079510;28;20395;-59
2022/03/21 03:26:22;;;;;;;28.17;18.65;;;;;;;;;;2081182;28;20037;-59
2022/03/21 03:27:41;;;;;;;36.42;20.33;;;;;;;;;;2076585;28;20030;-59
2022/03/21 03:29:00;;;;;;;31.60;20.05;;;;;;;;;;2080683;28;20400;-59
2022/03/21 03:30:19;;;;;;;33.25;20.10;;;;;;;;;;2078778;28;20029;-58
2022/03/21 03:31:38;;;;;;;32.80;19.80;;;;;;;;;;2081785;28;20041;-59
2022/03/21 03:32:57;;;;;;;30.40;19.92;;;;;;;;;;2081103;28;20049;-59
2022/03/21 03:34:17;;;;;;;31.17;19.42;;;;;;;;;;2079999;28;20380;-58
2022/03/21 03:35:36;;;;;;;29.10;19.13;;;;;;;;;;2078465;28;20038;-58
2022/03/21 03:36:54;;;;;;;30.30;19.63;;;;;;;;;;2080974;28;20025;-59
2022/03/21 03:38:14;;;;;;;30.48;19.23;;;;;;;;;;2079496;28;20037;-59
2022/03/21 03:39:33;;;;;;;26.90;19.70;;;;;;;;;;2079638;28;20014;-59
2022/03/21 03:40:54;;;;;;;29.30;19.90;;;;;;;;;;2078741;28;20060;-58
2022/03/21 03:42:13;;;;;;;31.00;19.85;;;;;;;;;;2074525;28;20029;-59
2022/03/21 03:43:32;;;;;;;31.75;21.35;;;;;;;;;;2081274;28;20041;-59
2022/03/21 03:44:51;;;;;;;32.60;20.25;;;;;;;;;;2079510;28;20100;-60
2022/03/21 03:46:10;;;;;;;32.63;20.50;;;;;;;;;;2080365;28;20495;-59
2022/03/21 03:47:29;;;;;;;29.67;20.98;;;;;;;;;;2080325;28;20037;-59
2022/03/21 03:48:48;;;;;;;28.83;19.55;;;;;;;;;;2080634;28;20397;-60
2022/03/21 03:50:07;;;;;;;31.73;20.50;;;;;;;;;;2079824;28;20033;-59
2022/03/21 03:51:26;;;;;;;28.27;20.10;;;;;;;;;;2080644;28;20038;-59
2022/03/21 03:52:46;;;;;;;32.17;20.40;;;;;;;;;;2081308;28;20033;-59
2022/03/21 03:54:05;;;;;;;29.88;20.85;;;;;;;;;;2080442;28;20045;-59
2022/03/21 03:55:23;;;;;;;32.28;20.63;;;;;;;;;;2079197;28;20030;-59
2022/03/21 03:56:42;;;;;;;34.67;20.85;;;;;;;;;;2080312;28;20041;-59
2022/03/21 03:58:01;;;;;;;31.15;20.95;;;;;;;;;;2080143;28;20403;-58
2022/03/21 03:59:20;;;;;;;35.10;21.40;;;;;;;;;;2079454;28;20025;-59
2022/03/21 04:00:39;;;;;;;35.38;21.15;;;;;;;;;;2078410;28;20041;-60
2022/03/21 04:01:58;;;;;;;31.80;20.85;;;;;;;;;;2078846;28;20022;-59
2022/03/21 04:04:00;;;;;;;33.13;22.65;;;;;;;;;;2080568;28;20021;-60
2022/03/21 04:05:00;;;;;;;34.63;22.35;;;;;;;;;;2078902;28;20056;-60
2022/03/21 04:06:20;;;;;;;33.90;21.50;;;;;;;;;;2080159;28;20034;-59
2022/03/21 04:07:39;;;;;;;31.23;20.92;;;;;;;;;;2081595;28;20033;-58
2022/03/21 04:08:59;;;;;;;37.25;21.92;;;;;;;;;;2079066;28;20018;-59
2022/03/21 04:10:18;;;;;;;34.88;22.02;;;;;;;;;;2077282;28;20026;-59
2022/03/21 04:11:37;;;;;;;32.72;22.02;;;;;;;;;;2080415;28;20022;-58
2022/03/21 04:12:56;;;;;;;33.45;22.48;;;;;;;;;;2081240;28;20519;-59
2022/03/21 04:14:15;;;;;;;39.05;23.45;;;;;;;;;;2079495;28;20038;-59
2022/03/21 04:15:34;;;;;;;35.92;22.55;;;;;;;;;;2078993;28;20041;-59
2022/03/21 04:16:53;;;;;;;34.90;22.88;;;;;;;;;;2081617;28;20056;-59
2022/03/21 04:18:12;;;;;;;38.22;24.40;;;;;;;;;;2079690;28;20100;-59
2022/03/21 04:19:31;;;;;;;36.97;23.90;;;;;;;;;;2077891;28;20030;-59
2022/03/21 04:20:50;;;;;;;35.35;23.63;;;;;;;;;;2079019;28;20037;-59
2022/03/21 04:22:09;;;;;;;34.95;23.27;;;;;;;;;;2078403;28;20570;-59
2022/03/21 04:23:28;;;;;;;37.20;23.30;;;;;;;;;;2081491;28;20041;-60
2022/03/21 04:24:47;;;;;;;39.90;24.25;;;;;;;;;;2079459;28;20336;-59
2022/03/21 04:26:06;;;;;;;36.85;23.45;;;;;;;;;;2078899;28;20038;-59
2022/03/21 04:27:25;;;;;;;36.72;23.75;;;;;;;;;;2079256;28;20137;-59
2022/03/21 04:28:44;;;;;;;36.20;23.52;;;;;;;;;;2079685;28;20029;-59
2022/03/21 04:30:03;;;;;;;38.42;24.10;;;;;;;;;;2080742;28;20021;-59
2022/03/21 04:31:22;;;;;;;37.50;23.85;;;;;;;;;;2078408;28;20038;-60
2022/03/21 04:32:42;;;;;;;39.45;24.33;;;;;;;;;;2077311;28;20121;-59
2022/03/21 04:34:01;;;;;;;37.25;24.08;;;;;;;;;;2077617;28;20045;-59
2022/03/21 04:35:20;;;;;;;37.15;23.90;;;;;;;;;;2080466;28;20025;-60
2022/03/21 04:36:40;;;;;;;37.60;24.35;;;;;;;;;;2075747;28;20068;-59
2022/03/21 04:37:59;;;;;;;37.13;25.17;;;;;;;;;;2080527;28;20029;-59
2022/03/21 04:39:18;;;;;;;36.72;24.00;;;;;;;;;;2080846;28;20026;-59
2022/03/21 04:40:37;;;;;;;40.88;24.77;;;;;;;;;;2079253;28;20037;-60
2022/03/21 04:41:56;;;;;;;39.53;24.38;;;;;;;;;;2079197;28;20033;-58
2022/03/21 04:43:16;;;;;;;36.58;24.20;;;;;;;;;;2080400;28;20091;-60
2022/03/21 04:44:35;;;;;;;40.00;24.13;;;;;;;;;;2080735;28;20025;-59
2022/03/21 04:45:54;;;;;;;37.25;23.88;;;;;;;;;;2078197;28;20037;-60
2022/03/21 04:47:13;;;;;;;34.95;23.33;;;;;;;;;;2077302;28;20037;-59
2022/03/21 04:48:32;;;;;;;40.08;25.40;;;;;;;;;;2078646;28;20030;-59
2022/03/21 04:49:50;;;;;;;36.47;23.98;;;;;;;;;;2074576;28;20484;-59
2022/03/21 04:51:09;;;;;;;40.83;24.13;;;;;;;;;;2079119;28;20033;-59
2022/03/21 04:52:28;;;;;;;37.38;24.95;;;;;;;;;;2079511;28;20029;-60
2022/03/21 04:53:47;;;;;;;42.22;24.58;;;;;;;;;;2078401;28;20033;-60
2022/03/21 04:55:07;;;;;;;35.88;24.65;;;;;;;;;;2079210;28;20471;-59
2022/03/21 04:56:27;;;;;;;39.92;24.92;;;;;;;;;;2075380;28;20037;-58
2022/03/21 04:57:45;;;;;;;43.35;25.50;;;;;;;;;;2080451;28;20037;-59
2022/03/21 04:59:04;;;;;;;43.05;25.63;;;;;;;;;;2080989;28;20025;-59
2022/03/21 05:00:23;;;;;;;39.20;25.00;;;;;;;;;;2079670;28;20504;-59
2022/03/21 05:01:42;;;;;;;38.53;23.95;;;;;;;;;;2078153;28;20030;-59
2022/03/21 05:03:05;;;;;;;39.10;24.60;;;;;;;;;;2080138;28;20053;-59
2022/03/21 05:04:24;;;;;;;37.72;24.35;;;;;;;;;;2078052;28;20387;-59
2022/03/21 05:05:43;;;;;;;44.42;26.67;;;;;;;;;;2078958;28;20435;-58
2022/03/21 05:07:02;;;;;;;41.65;25.75;;;;;;;;;;2080196;28;20029;-59
2022/03/21 05:08:22;;;;;;;36.10;24.30;;;;;;;;;;2079838;28;20021;-59
2022/03/21 05:09:41;;;;;;;41.70;24.58;;;;;;;;;;2078783;28;20117;-59
2022/03/21 05:11:00;;;;;;;42.42;26.23;;;;;;;;;;2077972;28;20026;-59
2022/03/21 05:12:20;;;;;;;40.75;25.95;;;;;;;;;;2077516;28;20038;-59
2022/03/21 05:13:39;;;;;;;41.47;26.45;;;;;;;;;;2080111;28;20088;-59
2022/03/21 05:14:58;;;;;;;45.78;27.85;;;;;;;;;;2079636;28;20371;-59
2022/03/21 05:16:18;;;;;;;39.90;24.67;;;;;;;;;;2078986;28;20178;-60
2022/03/21 05:17:38;;;;;;;38.60;24.55;;;;;;;;;;2078275;28;20021;-59
2022/03/21 05:18:57;;;;;;;38.58;24.98;;;;;;;;;;2079860;28;20029;-58
2022/03/21 05:20:17;;;;;;;42.72;25.05;;;;;;;;;;2079519;28;20092;-59
2022/03/21 05:21:36;;;;;;;39.58;24.75;;;;;;;;;;2078281;28;20033;-58
2022/03/21 05:31:05;;;;;;;38.40;22.80;;;;;;;;;;2079650;28;20061;-59
2022/03/21 05:32:24;;;;;;;42.05;25.05;;;;;;;;;;2077978;28;20150;-59
2022/03/21 05:36:58;;;;;;;39.38;23.58;;;;;;;;;;2079028;28;20029;-59
2022/03/21 05:38:17;;;;;;;38.88;24.17;;;;;;;;;;2075895;28;20041;-58
2022/03/21 05:40:31;;;;;;;41.75;23.80;;;;;;;;;;2072339;28;20038;-59
2022/03/21 05:41:15;;;;;;;36.45;22.73;;;;;;;;;;2078355;28;20029;-59
2022/03/21 05:42:34;;;;;;;39.83;24.30;;;;;;;;;;2077470;28;20037;-59
2022/03/21 05:43:53;;;;;;;35.10;22.95;;;;;;;;;;2079097;28;20029;-58
2022/03/21 05:45:19;;;;;;;38.47;24.10;;;;;;;;;;2080788;28;20033;-59
2022/03/21 05:46:39;;;;;;;43.13;23.83;;;;;;;;;;2077191;28;20116;-59
2022/03/21 05:49:35;;;;;;;40.88;23.98;;;;;;;;;;2079670;28;20033;-59
2022/03/21 05:50:55;;;;;;;38.35;23.90;;;;;;;;;;2076337;28;20037;-59
2022/03/21 05:52:14;;;;;;;34.22;22.65;;;;;;;;;;2076008;28;20037;-58
2022/03/21 05:53:33;;;;;;;41.33;23.60;;;;;;;;;;2078257;28;20029;-59
2022/03/21 05:54:51;;;;;;;35.03;23.17;;;;;;;;;;2079980;28;20030;-59
2022/03/21 05:56:11;;;;;;;39.00;22.75;;;;;;;;;;2075988;28;20025;-58
2022/03/21 05:57:30;;;;;;;38.67;23.27;;;;;;;;;;2076797;28;20025;-58
2022/03/21 05:58:48;;;;;;;34.15;22.23;;;;;;;;;;2075352;28;20398;-59
2022/03/21 06:00:22;;;;;;;38.70;23.33;;;;;;;;;;2078725;28;20112;-59
2022/03/21 06:01:41;;;;;;;37.08;24.05;;;;;;;;;;2080085;28;20084;-59
2022/03/21 06:03:00;;;;;;;40.90;22.70;;;;;;;;;;2076161;28;20488;-60
2022/03/21 06:04:19;;;;;;;37.40;23.85;;;;;;;;;;2076762;28;20717;-57
2022/03/21 06:05:40;;;;;;;33.05;23.05;;;;;;;;;;2078305;28;20052;-58
2022/03/21 06:07:02;;;;;;;36.53;23.33;;;;;;;;;;2073555;28;20030;-56
2022/03/21 06:08:22;;;;;;;38.97;23.90;;;;;;;;;;2074649;28;20042;-56
2022/03/21 06:09:40;;;;;;;34.63;22.90;;;;;;;;;;2078381;28;20022;-57
2022/03/21 06:11:08;;;;;;;40.88;24.58;;;;;;;;;;2078116;28;20056;-57
2022/03/21 06:12:26;;;;;;;35.10;22.80;;;;;;;;;;2077033;28;20522;-59
2022/03/21 06:13:45;;;;;;;38.10;24.45;;;;;;;;;;2079593;28;20030;-58
2022/03/21 06:15:05;;;;;;;36.25;22.35;;;;;;;;;;2079567;28;20120;-58
2022/03/21 06:16:24;;;;;;;38.08;23.20;;;;;;;;;;2078854;28;20068;-57
2022/03/21 06:17:43;;;;;;;38.30;22.75;;;;;;;;;;2078458;28;20029;-58
2022/03/21 06:19:02;;;;;;;38.53;23.38;;;;;;;;;;2078493;28;20026;-58
2022/03/21 06:20:21;;;;;;;38.60;23.55;;;;;;;;;;2076396;28;20037;-57
2022/03/21 06:21:40;;;;;;;39.58;22.80;;;;;;;;;;2078508;28;20108;-58
2022/03/21 06:22:59;;;;;;;40.17;23.75;;;;;;;;;;2079009;28;20109;-57
2022/03/21 06:24:18;;;;;;;41.30;24.27;;;;;;;;;;2078722;28;20022;-58
2022/03/21 06:25:37;;;;;;;35.72;23.40;;;;;;;;;;2078963;28;20038;-57
2022/03/21 06:26:56;;;;;;;41.92;23.88;;;;;;;;;;2078386;28;20030;-57
2022/03/21 06:28:15;;;;;;;37.20;23.50;;;;;;;;;;2078648;28;20029;-58
2022/03/21 06:29:34;;;;;;;38.63;23.70;;;;;;;;;;2077307;28;20507;-57
2022/03/21 06:30:53;;;;;;;37.17;23.73;;;;;;;;;;2073960;28;20026;-55
2022/03/21 06:32:13;;;;;;;36.45;23.42;;;;;;;;;;2078615;28;20038;-56
2022/03/21 06:33:32;;;;;;;40.85;24.30;;;;;;;;;;2075282;28;20045;-56
2022/03/21 06:34:52;;;;;;;41.50;23.83;;;;;;;;;;2075393;28;20423;-57
2022/03/21 06:36:11;;;;;;;40.50;24.90;;;;;;;;;;2078815;28;20126;-56
2022/03/21 06:37:31;;;;;;;37.67;22.63;;;;;;;;;;2078560;28;20038;-55
2022/03/21 06:38:50;;;;;;;39.40;24.48;;;;;;;;;;2073537;28;20057;-54
2022/03/21 06:40:09;;;;;;;35.63;22.38;;;;;;;;;;2077364;28;20042;-56
2022/03/21 06:41:28;;;;;;;36.42;23.38;;;;;;;;;;2078350;28;20151;-56
2022/03/21 06:42:47;;;;;;;39.80;24.33;;;;;;;;;;2078148;28;20042;-55
2022/03/21 06:44:06;;;;;;;39.30;23.27;;;;;;;;;;2078944;28;20033;-56
2022/03/21 06:45:25;;;;;;;40.28;23.73;;;;;;;;;;2077011;28;20505;-57
2022/03/21 06:46:44;;;;;;;36.17;24.17;;;;;;;;;;2076240;28;20026;-61
2022/03/21 06:48:03;;;;;;;39.08;23.42;;;;;;;;;;2076849;28;20033;-56
2022/03/21 06:49:26;;;;;;;36.00;23.65;;;;;;;;;;2080816;28;20069;-56
2022/03/21 06:50:48;;;;;;;36.33;22.73;;;;;;;;;;2077140;28;20033;-55
2022/03/21 06:52:08;;;;;;;35.42;22.50;;;;;;;;;;2073762;28;20041;-55
2022/03/21 06:53:26;;;;;;;36.08;21.60;;;;;;;;;;2073946;28;20026;-55
2022/03/21 06:54:48;;;;;;;36.20;23.10;;;;;;;;;;2077180;28;20033;-59
2022/03/21 06:56:07;;;;;;;36.30;22.42;;;;;;;;;;2080465;28;20500;-56
2022/03/21 06:57:26;;;;;;;35.28;22.88;;;;;;;;;;2079898;28;20037;-57
2022/03/21 06:58:45;;;;;;;34.40;23.35;;;;;;;;;;2076736;28;20037;-56
2022/03/21 07:00:05;;;;;;;46.25;23.77;;;;;;;;;;2078393;28;20487;-55
2022/03/21 07:01:25;;;;;;;40.53;23.52;;;;;;;;;;2079594;28;20029;-55
2022/03/21 07:02:44;;;;;;;42.03;23.02;;;;;;;;;;2079787;28;20104;-56
2022/03/21 07:04:04;;;;;;;35.05;23.50;;;;;;;;;;2078961;28;20030;-57
2022/03/21 07:05:22;;;;;;;39.33;24.42;;;;;;;;;;2080120;28;20029;-57
2022/03/21 07:06:41;;;;;;;37.60;24.88;;;;;;;;;;2079794;28;20026;-56
2022/03/21 07:08:01;;;;;;;36.47;22.63;;;;;;;;;;2079454;28;20105;-57
2022/03/21 07:09:20;;;;;;;34.55;23.17;;;;;;;;;;2077784;28;20029;-55
2022/03/21 07:10:44;;;;;;;40.50;23.13;;;;;;;;;;2081862;28;20391;-56
2022/03/21 07:12:03;;;;;;;44.53;23.02;;;;;;;;;;2080870;28;20108;-56
2022/03/21 07:13:22;;;;;;;36.08;23.52;;;;;;;;;;2080655;28;20447;-56
2022/03/21 07:14:41;;;;;;;39.42;23.80;;;;;;;;;;2080416;28;20496;-57
2022/03/21 07:16:01;;;;;;;38.83;23.25;;;;;;;;;;2079980;28;20033;-56
2022/03/21 07:17:21;;;;;;;38.65;23.00;;;;;;;;;;2078847;28;20037;-55
2022/03/21 07:18:40;;;;;;;40.28;22.98;;;;;;;;;;2079894;28;20030;-53
2022/03/21 07:19:59;;;;;;;37.13;22.45;;;;;;;;;;2080592;28;20025;-55
2022/03/21 07:21:19;;;;;;;36.95;22.65;;;;;;;;;;2079937;28;20025;-55
2022/03/21 07:22:39;;;;;;;35.72;22.02;;;;;;;;;;2079982;28;20034;-56
2022/03/21 07:23:58;;;;;;;36.38;22.55;;;;;;;;;;2080600;28;20029;-55
2022/03/21 07:25:16;;;;;;;36.63;21.40;;;;;;;;;;2081777;28;20029;-55
2022/03/21 07:26:36;;;;;;;38.75;23.13;;;;;;;;;;2080829;28;20033;-57
2022/03/21 07:27:55;;;;;;;34.42;22.77;;;;;;;;;;2080230;28;20030;-55
2022/03/21 07:29:14;;;;;;;42.22;20.98;;;;;;;;;;2079683;28;20538;-54
2022/03/21 07:30:33;;;;;;;30.85;20.38;;;;;;;;;;2082252;28;20108;-53
2022/03/21 07:31:52;;;;;;;35.72;21.77;;;;;;;;;;2080564;28;20042;-55
2022/03/21 07:33:12;;;;;;;38.75;20.88;;;;;;;;;;2077722;28;20037;-55
2022/03/21 07:34:31;;;;;;;35.40;20.63;;;;;;;;;;2077319;28;20025;-55
2022/03/21 07:35:53;;;;;;;37.33;21.80;;;;;;;;;;2079368;28;20025;-55
2022/03/21 07:37:12;;;;;;;35.30;20.55;;;;;;;;;;2080798;28;20033;-55
2022/03/21 07:38:31;;;;;;;30.00;19.83;;;;;;;;;;2078244;28;20419;-55
2022/03/21 07:39:49;;;;;;;33.42;19.98;;;;;;;;;;2081022;28;20116;-54
2022/03/21 07:41:08;;;;;;;27.65;18.73;;;;;;;;;;2080671;28;20444;-54
2022/03/21 07:42:28;;;;;;;30.52;19.75;;;;;;;;;;2074331;28;20108;-57
2022/03/21 07:43:46;;;;;;;31.02;19.60;;;;;;;;;;2072699;28;20026;-55
2022/03/21 07:48:23;;;;;;;33.63;18.35;;;;;;;;;;2075662;28;20029;-56
2022/03/21 07:49:43;;;;;;;32.63;19.25;;;;;;;;;;2078743;28;20037;-54
2022/03/21 07:51:04;;;;;;;29.77;18.27;;;;;;;;;;2081321;28;20684;-55
2022/03/21 07:52:23;;;;;;;27.92;18.83;;;;;;;;;;2078485;28;20026;-55
2022/03/21 07:53:42;;;;;;;32.35;18.52;;;;;;;;;;2078051;28;20034;-56
2022/03/21 07:55:01;;;;;;;30.48;17.73;;;;;;;;;;2078959;28;20034;-56
2022/03/21 07:56:23;;;;;;;32.60;18.45;;;;;;;;;;2072110;28;20034;-56
2022/03/21 07:57:42;;;;;;;29.13;18.35;;;;;;;;;;2075340;28;20145;-55
2022/03/21 07:59:01;;;;;;;29.85;17.05;;;;;;;;;;2075531;28;20018;-56
2022/03/21 08:00:20;;;;;;;34.60;17.67;;;;;;;;;;2079035;28;20030;-56
2022/03/21 08:01:39;;;;;;;29.20;17.75;;;;;;;;;;2080423;28;20056;-57
2022/03/21 08:02:59;;;;;;;31.05;18.38;;;;;;;;;;2077279;28;20025;-56
2022/03/21 08:04:17;;;;;;;27.48;16.77;;;;;;;;;;2077675;28;20083;-56
2022/03/21 08:05:36;;;;;;;26.27;17.25;;;;;;;;;;2076369;28;20664;-56
2022/03/21 08:06:58;;;;;;;32.53;16.38;;;;;;;;;;2078753;28;20066;-56
2022/03/21 08:08:19;;;;;;;26.48;17.85;;;;;;;;;;2076555;28;20018;-55